sensor_id;sensor_type;location;lat;lon;timestamp;temperature;humidity
13412;DHT22;67102;51.666;6.880;2023-03-01T00:01:33;4.80;55.60
13412;DHT22;67102;51.666;6.880;2023-03-01T00:03:59;4.70;55.40
13412;DHT22;67102;51.666;6.880;2023-03-01T00:06:26;4.70;56.10
13412;DHT22;67102;51.666;6.880;2023-03-01T00:08:54;5.40;56.00
13412;DHT22;67102;51.666;6.880;2023-03-01T00:11:22;4.70;55.50
13412;DHT22;67102;51.666;6.880;2023-03-01T00:13:50;4.70;55.40
13412;DHT22;67102;51.666;6.880;2023-03-01T00:16:19;4.70;55.30
13412;DHT22;67102;51.666;6.880;2023-03-01T00:18:46;4.70;55.20
13412;DHT22;67102;51.666;6.880;2023-03-01T00:21:12;4.60;55.10
13412;DHT22;67102;51.666;6.880;2023-03-01T00:23:38;4.60;55.10
13412;DHT22;67102;51.666;6.880;2023-03-01T00:26:08;4.60;55.70
13412;DHT22;67102;51.666;6.880;2023-03-01T00:28:35;4.60;55.20
13412;DHT22;67102;51.666;6.880;2023-03-01T00:31:03;4.50;54.90
13412;DHT22;67102;51.666;6.880;2023-03-01T00:33:30;4.50;55.20
13412;DHT22;67102;51.666;6.880;2023-03-01T00:35:58;4.50;55.00
13412;DHT22;67102;51.666;6.880;2023-03-01T00:38:24;4.40;55.10
13412;DHT22;67102;51.666;6.880;2023-03-01T00:40:50;4.40;55.00
13412;DHT22;67102;51.666;6.880;2023-03-01T00:43:17;4.40;55.00
13412;DHT22;67102;51.666;6.880;2023-03-01T00:45:43;4.30;55.10
13412;DHT22;67102;51.666;6.880;2023-03-01T00:48:09;4.30;55.00
13412;DHT22;67102;51.666;6.880;2023-03-01T00:50:35;4.30;55.00
13412;DHT22;67102;51.666;6.880;2023-03-01T00:53:01;4.20;55.10
13412;DHT22;67102;51.666;6.880;2023-03-01T00:55:27;4.20;55.00
13412;DHT22;67102;51.666;6.880;2023-03-01T00:57:53;4.10;55.00
13412;DHT22;67102;51.666;6.880;2023-03-01T01:00:21;4.10;55.10
13412;DHT22;67102;51.666;6.880;2023-03-01T01:02:47;4.10;55.40
13412;DHT22;67102;51.666;6.880;2023-03-01T01:05:13;4.10;55.20
13412;DHT22;67102;51.666;6.880;2023-03-01T01:07:39;4.10;55.30
13412;DHT22;67102;51.666;6.880;2023-03-01T01:10:07;4.00;55.40
13412;DHT22;67102;51.666;6.880;2023-03-01T01:12:34;4.00;55.90
13412;DHT22;67102;51.666;6.880;2023-03-01T01:15:00;3.90;56.60
13412;DHT22;67102;51.666;6.880;2023-03-01T01:17:27;3.90;56.30
13412;DHT22;67102;51.666;6.880;2023-03-01T01:19:53;3.90;56.80
13412;DHT22;67102;51.666;6.880;2023-03-01T01:22:19;3.80;56.50
13412;DHT22;67102;51.666;6.880;2023-03-01T01:24:45;3.80;56.70
13412;DHT22;67102;51.666;6.880;2023-03-01T01:27:11;3.80;57.00
13412;DHT22;67102;51.666;6.880;2023-03-01T01:29:36;3.80;56.80
13412;DHT22;67102;51.666;6.880;2023-03-01T01:32:03;3.80;56.80
13412;DHT22;67102;51.666;6.880;2023-03-01T01:34:30;3.80;56.80
13412;DHT22;67102;51.666;6.880;2023-03-01T01:36:56;3.90;56.80
13412;DHT22;67102;51.666;6.880;2023-03-01T01:39:22;3.90;56.50
13412;DHT22;67102;51.666;6.880;2023-03-01T01:41:48;3.90;56.40
13412;DHT22;67102;51.666;6.880;2023-03-01T01:44:17;3.90;56.30
13412;DHT22;67102;51.666;6.880;2023-03-01T01:46:47;3.90;56.40
13412;DHT22;67102;51.666;6.880;2023-03-01T01:49:23;3.90;56.40
13412;DHT22;67102;51.666;6.880;2023-03-01T01:51:59;3.80;57.00
13412;DHT22;67102;51.666;6.880;2023-03-01T01:54:31;3.90;57.30
13412;DHT22;67102;51.666;6.880;2023-03-01T01:57:09;3.80;57.20
13412;DHT22;67102;51.666;6.880;2023-03-01T01:59:38;3.80;57.30
13412;DHT22;67102;51.666;6.880;2023-03-01T02:02:05;3.80;57.40
13412;DHT22;67102;51.666;6.880;2023-03-01T02:04:31;3.80;57.40
13412;DHT22;67102;51.666;6.880;2023-03-01T02:07:02;3.70;57.00
13412;DHT22;67102;51.666;6.880;2023-03-01T02:09:30;3.70;57.30
13412;DHT22;67102;51.666;6.880;2023-03-01T02:11:58;3.70;57.00
13412;DHT22;67102;51.666;6.880;2023-03-01T02:14:24;3.70;56.90
13412;DHT22;67102;51.666;6.880;2023-03-01T02:16:50;3.70;56.70
13412;DHT22;67102;51.666;6.880;2023-03-01T02:19:35;3.70;56.70
13412;DHT22;67102;51.666;6.880;2023-03-01T02:22:15;3.70;57.40
13412;DHT22;67102;51.666;6.880;2023-03-01T02:24:50;3.60;57.10
13412;DHT22;67102;51.666;6.880;2023-03-01T02:27:28;3.60;56.90
13412;DHT22;67102;51.666;6.880;2023-03-01T02:30:01;3.60;56.80
13412;DHT22;67102;51.666;6.880;2023-03-01T02:32:27;4.90;57.30
13412;DHT22;67102;51.666;6.880;2023-03-01T02:34:54;3.50;56.60
13412;DHT22;67102;51.666;6.880;2023-03-01T02:37:21;3.50;56.70
13412;DHT22;67102;51.666;6.880;2023-03-01T02:39:48;3.50;56.70
13412;DHT22;67102;51.666;6.880;2023-03-01T02:42:21;3.40;56.70
13412;DHT22;67102;51.666;6.880;2023-03-01T02:44:49;3.40;57.20
13412;DHT22;67102;51.666;6.880;2023-03-01T02:47:16;3.40;57.20
13412;DHT22;67102;51.666;6.880;2023-03-01T02:49:42;3.40;57.70
13412;DHT22;67102;51.666;6.880;2023-03-01T02:52:22;3.30;57.20
13412;DHT22;67102;51.666;6.880;2023-03-01T02:54:57;3.30;57.90
13412;DHT22;67102;51.666;6.880;2023-03-01T02:57:25;3.30;57.70
13412;DHT22;67102;51.666;6.880;2023-03-01T02:59:54;3.30;58.10
13412;DHT22;67102;51.666;6.880;2023-03-01T03:02:22;3.20;58.60
13412;DHT22;67102;51.666;6.880;2023-03-01T03:04:50;3.30;58.40
13412;DHT22;67102;51.666;6.880;2023-03-01T03:07:16;3.20;57.90
13412;DHT22;67102;51.666;6.880;2023-03-01T03:09:42;3.20;57.60
13412;DHT22;67102;51.666;6.880;2023-03-01T03:12:07;3.30;57.90
13412;DHT22;67102;51.666;6.880;2023-03-01T03:14:33;3.20;57.90
13412;DHT22;67102;51.666;6.880;2023-03-01T03:16:59;3.20;57.70
13412;DHT22;67102;51.666;6.880;2023-03-01T03:19:27;0.60;56.40
13412;DHT22;67102;51.666;6.880;2023-03-01T03:21:53;3.30;58.70
13412;DHT22;67102;51.666;6.880;2023-03-01T03:24:19;3.20;58.60
13412;DHT22;67102;51.666;6.880;2023-03-01T03:26:44;3.30;59.60
13412;DHT22;67102;51.666;6.880;2023-03-01T03:29:10;3.20;59.90
13412;DHT22;67102;51.666;6.880;2023-03-01T03:31:36;3.20;59.60
13412;DHT22;67102;51.666;6.880;2023-03-01T03:34:02;3.20;59.40
13412;DHT22;67102;51.666;6.880;2023-03-01T03:36:29;3.20;59.10
13412;DHT22;67102;51.666;6.880;2023-03-01T03:38:55;3.20;59.20
13412;DHT22;67102;51.666;6.880;2023-03-01T03:41:21;3.20;60.00
13412;DHT22;67102;51.666;6.880;2023-03-01T03:43:47;3.20;59.60
13412;DHT22;67102;51.666;6.880;2023-03-01T03:46:13;3.20;59.70
13412;DHT22;67102;51.666;6.880;2023-03-01T03:48:40;3.20;60.70
13412;DHT22;67102;51.666;6.880;2023-03-01T03:51:10;3.20;59.60
13412;DHT22;67102;51.666;6.880;2023-03-01T03:53:39;3.20;59.40
13412;DHT22;67102;51.666;6.880;2023-03-01T03:56:06;3.20;59.80
13412;DHT22;67102;51.666;6.880;2023-03-01T03:58:33;3.20;58.70
13412;DHT22;67102;51.666;6.880;2023-03-01T04:00:59;3.20;58.60
13412;DHT22;67102;51.666;6.880;2023-03-01T04:03:27;3.20;58.50
13412;DHT22;67102;51.666;6.880;2023-03-01T04:05:54;2.00;57.80
13412;DHT22;67102;51.666;6.880;2023-03-01T04:08:23;3.10;58.10
13412;DHT22;67102;51.666;6.880;2023-03-01T04:10:51;3.10;58.20
13412;DHT22;67102;51.666;6.880;2023-03-01T04:13:20;3.10;58.30
13412;DHT22;67102;51.666;6.880;2023-03-01T04:15:48;3.00;58.10
13412;DHT22;67102;51.666;6.880;2023-03-01T04:18:16;3.00;58.00
13412;DHT22;67102;51.666;6.880;2023-03-01T04:20:43;3.00;57.90
13412;DHT22;67102;51.666;6.880;2023-03-01T04:23:12;3.00;57.80
13412;DHT22;67102;51.666;6.880;2023-03-01T04:25:40;3.00;57.90
13412;DHT22;67102;51.666;6.880;2023-03-01T04:28:09;2.90;57.90
13412;DHT22;67102;51.666;6.880;2023-03-01T04:30:36;2.90;58.10
13412;DHT22;67102;51.666;6.880;2023-03-01T04:33:04;2.90;57.90
13412;DHT22;67102;51.666;6.880;2023-03-01T04:35:31;2.80;58.00
13412;DHT22;67102;51.666;6.880;2023-03-01T04:37:57;2.80;58.00
13412;DHT22;67102;51.666;6.880;2023-03-01T04:40:23;2.90;58.20
13412;DHT22;67102;51.666;6.880;2023-03-01T04:42:49;2.80;58.20
13412;DHT22;67102;51.666;6.880;2023-03-01T04:45:17;2.80;58.10
13412;DHT22;67102;51.666;6.880;2023-03-01T04:47:45;2.80;59.00
13412;DHT22;67102;51.666;6.880;2023-03-01T04:50:13;2.80;58.60
13412;DHT22;67102;51.666;6.880;2023-03-01T04:52:40;2.80;58.50
13412;DHT22;67102;51.666;6.880;2023-03-01T04:55:06;2.80;59.20
13412;DHT22;67102;51.666;6.880;2023-03-01T04:57:34;2.70;59.10
13412;DHT22;67102;51.666;6.880;2023-03-01T05:00:00;2.90;58.90
13412;DHT22;67102;51.666;6.880;2023-03-01T05:02:27;2.80;58.70
13412;DHT22;67102;51.666;6.880;2023-03-01T05:04:53;2.80;58.70
13412;DHT22;67102;51.666;6.880;2023-03-01T05:07:19;2.80;58.50
13412;DHT22;67102;51.666;6.880;2023-03-01T05:09:46;2.80;58.60
13412;DHT22;67102;51.666;6.880;2023-03-01T05:12:12;2.70;59.30
13412;DHT22;67102;51.666;6.880;2023-03-01T05:14:38;2.70;59.30
13412;DHT22;67102;51.666;6.880;2023-03-01T05:17:04;2.70;59.80
13412;DHT22;67102;51.666;6.880;2023-03-01T05:19:31;2.70;59.80
13412;DHT22;67102;51.666;6.880;2023-03-01T05:21:57;2.70;59.90
13412;DHT22;67102;51.666;6.880;2023-03-01T05:24:23;2.70;60.50
13412;DHT22;67102;51.666;6.880;2023-03-01T05:26:49;2.70;60.40
13412;DHT22;67102;51.666;6.880;2023-03-01T05:29:15;2.70;60.30
13412;DHT22;67102;51.666;6.880;2023-03-01T05:31:41;2.70;60.30
13412;DHT22;67102;51.666;6.880;2023-03-01T05:34:07;2.80;60.40
13412;DHT22;67102;51.666;6.880;2023-03-01T05:36:34;2.70;60.10
13412;DHT22;67102;51.666;6.880;2023-03-01T05:39:00;2.80;60.60
13412;DHT22;67102;51.666;6.880;2023-03-01T05:41:26;2.80;60.60
13412;DHT22;67102;51.666;6.880;2023-03-01T05:43:52;2.80;60.40
13412;DHT22;67102;51.666;6.880;2023-03-01T05:46:18;2.70;61.20
13412;DHT22;67102;51.666;6.880;2023-03-01T05:48:44;2.70;62.30
13412;DHT22;67102;51.666;6.880;2023-03-01T05:51:09;2.70;61.90
13412;DHT22;67102;51.666;6.880;2023-03-01T05:53:37;2.70;62.30
13412;DHT22;67102;51.666;6.880;2023-03-01T05:56:03;2.70;62.50
13412;DHT22;67102;51.666;6.880;2023-03-01T05:58:29;2.60;62.00
13412;DHT22;67102;51.666;6.880;2023-03-01T06:00:55;2.60;61.60
13412;DHT22;67102;51.666;6.880;2023-03-01T06:03:21;2.60;61.60
13412;DHT22;67102;51.666;6.880;2023-03-01T06:05:47;2.60;61.50
13412;DHT22;67102;51.666;6.880;2023-03-01T06:08:13;2.60;61.60
13412;DHT22;67102;51.666;6.880;2023-03-01T06:10:41;2.60;61.90
13412;DHT22;67102;51.666;6.880;2023-03-01T06:13:06;2.60;62.40
13412;DHT22;67102;51.666;6.880;2023-03-01T06:15:32;2.60;61.70
13412;DHT22;67102;51.666;6.880;2023-03-01T06:17:58;2.60;62.30
13412;DHT22;67102;51.666;6.880;2023-03-01T06:20:27;2.60;62.00
13412;DHT22;67102;51.666;6.880;2023-03-01T06:22:53;2.60;62.40
13412;DHT22;67102;51.666;6.880;2023-03-01T06:25:23;2.60;62.10
13412;DHT22;67102;51.666;6.880;2023-03-01T06:27:52;2.60;62.10
13412;DHT22;67102;51.666;6.880;2023-03-01T06:30:19;2.70;61.90
13412;DHT22;67102;51.666;6.880;2023-03-01T06:32:46;2.70;61.70
13412;DHT22;67102;51.666;6.880;2023-03-01T06:35:14;2.70;61.20
13412;DHT22;67102;51.666;6.880;2023-03-01T06:37:41;2.70;61.20
13412;DHT22;67102;51.666;6.880;2023-03-01T06:40:08;2.80;61.20
13412;DHT22;67102;51.666;6.880;2023-03-01T06:42:35;2.80;61.60
13412;DHT22;67102;51.666;6.880;2023-03-01T06:45:04;2.80;61.90
13412;DHT22;67102;51.666;6.880;2023-03-01T06:47:31;2.90;62.90
13412;DHT22;67102;51.666;6.880;2023-03-01T06:49:57;2.90;63.40
13412;DHT22;67102;51.666;6.880;2023-03-01T06:52:23;3.00;63.20
13412;DHT22;67102;51.666;6.880;2023-03-01T06:54:49;3.10;63.70
13412;DHT22;67102;51.666;6.880;2023-03-01T06:57:15;3.20;64.30
13412;DHT22;67102;51.666;6.880;2023-03-01T06:59:40;3.30;64.70
13412;DHT22;67102;51.666;6.880;2023-03-01T07:02:09;3.50;64.70
13412;DHT22;67102;51.666;6.880;2023-03-01T07:04:36;3.70;64.70
13412;DHT22;67102;51.666;6.880;2023-03-01T07:07:01;4.00;64.90
13412;DHT22;67102;51.666;6.880;2023-03-01T07:09:27;4.20;64.70
13412;DHT22;67102;51.666;6.880;2023-03-01T07:11:54;4.40;64.50
13412;DHT22;67102;51.666;6.880;2023-03-01T07:14:19;4.60;64.30
13412;DHT22;67102;51.666;6.880;2023-03-01T07:16:45;4.90;64.20
13412;DHT22;67102;51.666;6.880;2023-03-01T07:19:13;5.10;63.40
13412;DHT22;67102;51.666;6.880;2023-03-01T07:21:38;5.30;62.70
13412;DHT22;67102;51.666;6.880;2023-03-01T07:24:05;5.50;62.20
13412;DHT22;67102;51.666;6.880;2023-03-01T07:26:32;5.70;60.80
13412;DHT22;67102;51.666;6.880;2023-03-01T07:28:58;5.90;60.50
13412;DHT22;67102;51.666;6.880;2023-03-01T07:31:24;6.10;59.90
13412;DHT22;67102;51.666;6.880;2023-03-01T07:33:50;6.30;59.60
13412;DHT22;67102;51.666;6.880;2023-03-01T07:36:18;6.50;59.80
13412;DHT22;67102;51.666;6.880;2023-03-01T07:38:43;6.70;59.90
13412;DHT22;67102;51.666;6.880;2023-03-01T07:41:09;6.90;60.00
13412;DHT22;67102;51.666;6.880;2023-03-01T07:43:35;7.20;60.00
13412;DHT22;67102;51.666;6.880;2023-03-01T07:46:02;7.30;58.20
13412;DHT22;67102;51.666;6.880;2023-03-01T07:48:29;7.50;57.90
13412;DHT22;67102;51.666;6.880;2023-03-01T07:50:57;7.80;57.80
13412;DHT22;67102;51.666;6.880;2023-03-01T07:53:25;7.90;56.40
13412;DHT22;67102;51.666;6.880;2023-03-01T07:56:00;8.10;56.00
13412;DHT22;67102;51.666;6.880;2023-03-01T07:58:27;8.20;55.90
13412;DHT22;67102;51.666;6.880;2023-03-01T08:00:52;8.40;55.40
13412;DHT22;67102;51.666;6.880;2023-03-01T08:03:18;8.60;57.10
13412;DHT22;67102;51.666;6.880;2023-03-01T08:05:44;8.80;54.80
13412;DHT22;67102;51.666;6.880;2023-03-01T08:08:10;9.10;55.30
13412;DHT22;67102;51.666;6.880;2023-03-01T08:10:37;9.10;53.10
13412;DHT22;67102;51.666;6.880;2023-03-01T08:13:03;9.20;53.90
13412;DHT22;67102;51.666;6.880;2023-03-01T08:15:29;9.40;54.90
13412;DHT22;67102;51.666;6.880;2023-03-01T08:17:55;9.60;55.00
13412;DHT22;67102;51.666;6.880;2023-03-01T08:20:21;9.70;54.00
13412;DHT22;67102;51.666;6.880;2023-03-01T08:22:47;9.90;54.10
13412;DHT22;67102;51.666;6.880;2023-03-01T08:25:12;10.00;53.00
13412;DHT22;67102;51.666;6.880;2023-03-01T08:27:40;10.20;53.70
13412;DHT22;67102;51.666;6.880;2023-03-01T08:30:07;10.30;52.90
13412;DHT22;67102;51.666;6.880;2023-03-01T08:32:36;10.50;52.10
13412;DHT22;67102;51.666;6.880;2023-03-01T08:35:03;10.60;52.00
13412;DHT22;67102;51.666;6.880;2023-03-01T08:37:29;10.70;50.70
13412;DHT22;67102;51.666;6.880;2023-03-01T08:39:55;10.70;49.80
13412;DHT22;67102;51.666;6.880;2023-03-01T08:42:21;10.80;50.90
13412;DHT22;67102;51.666;6.880;2023-03-01T08:44:48;10.90;49.00
13412;DHT22;67102;51.666;6.880;2023-03-01T08:47:14;10.90;48.10
13412;DHT22;67102;51.666;6.880;2023-03-01T08:49:40;10.80;48.50
13412;DHT22;67102;51.666;6.880;2023-03-01T08:52:06;10.80;48.90
13412;DHT22;67102;51.666;6.880;2023-03-01T08:54:32;10.80;49.70
13412;DHT22;67102;51.666;6.880;2023-03-01T08:56:58;10.90;49.90
13412;DHT22;67102;51.666;6.880;2023-03-01T08:59:28;11.00;48.80
13412;DHT22;67102;51.666;6.880;2023-03-01T09:01:55;11.00;48.80
13412;DHT22;67102;51.666;6.880;2023-03-01T09:04:22;11.10;47.30
13412;DHT22;67102;51.666;6.880;2023-03-01T09:06:48;11.10;47.70
13412;DHT22;67102;51.666;6.880;2023-03-01T09:09:15;11.20;48.70
13412;DHT22;67102;51.666;6.880;2023-03-01T09:11:42;11.40;49.80
13412;DHT22;67102;51.666;6.880;2023-03-01T09:14:08;11.40;49.10
13412;DHT22;67102;51.666;6.880;2023-03-01T09:16:34;11.50;49.00
13412;DHT22;67102;51.666;6.880;2023-03-01T09:19:02;11.60;47.50
13412;DHT22;67102;51.666;6.880;2023-03-01T09:21:29;11.70;47.10
13412;DHT22;67102;51.666;6.880;2023-03-01T09:23:56;11.70;46.60
13412;DHT22;67102;51.666;6.880;2023-03-01T09:26:24;11.70;46.80
13412;DHT22;67102;51.666;6.880;2023-03-01T09:28:51;11.70;44.70
13412;DHT22;67102;51.666;6.880;2023-03-01T09:31:20;11.70;45.00
13412;DHT22;67102;51.666;6.880;2023-03-01T09:33:49;11.70;44.90
13412;DHT22;67102;51.666;6.880;2023-03-01T09:36:19;11.60;43.70
13412;DHT22;67102;51.666;6.880;2023-03-01T09:38:46;11.40;43.40
13412;DHT22;67102;51.666;6.880;2023-03-01T09:41:29;11.30;44.30
13412;DHT22;67102;51.666;6.880;2023-03-01T09:44:04;11.20;44.00
13412;DHT22;67102;51.666;6.880;2023-03-01T09:46:37;11.20;44.60
13412;DHT22;67102;51.666;6.880;2023-03-01T09:49:12;11.10;44.50
13412;DHT22;67102;51.666;6.880;2023-03-01T09:51:42;11.10;43.80
13412;DHT22;67102;51.666;6.880;2023-03-01T09:54:15;11.00;45.10
13412;DHT22;67102;51.666;6.880;2023-03-01T09:56:46;11.00;44.60
13412;DHT22;67102;51.666;6.880;2023-03-01T09:59:21;11.00;44.40
13412;DHT22;67102;51.666;6.880;2023-03-01T10:01:55;10.90;43.50
13412;DHT22;67102;51.666;6.880;2023-03-01T10:04:29;10.70;43.50
13412;DHT22;67102;51.666;6.880;2023-03-01T10:07:25;10.90;44.10
13412;DHT22;67102;51.666;6.880;2023-03-01T10:09:53;10.50;43.30
13412;DHT22;67102;51.666;6.880;2023-03-01T10:12:23;10.30;43.60
13412;DHT22;67102;51.666;6.880;2023-03-01T10:14:57;10.20;44.60
13412;DHT22;67102;51.666;6.880;2023-03-01T10:17:30;10.10;44.80
13412;DHT22;67102;51.666;6.880;2023-03-01T10:20:14;9.90;44.90
13412;DHT22;67102;51.666;6.880;2023-03-01T10:22:44;9.80;45.40
13412;DHT22;67102;51.666;6.880;2023-03-01T10:25:13;9.70;45.70
13412;DHT22;67102;51.666;6.880;2023-03-01T10:27:46;9.70;45.50
13412;DHT22;67102;51.666;6.880;2023-03-01T10:30:18;9.50;45.10
13412;DHT22;67102;51.666;6.880;2023-03-01T10:32:45;9.50;45.30
13412;DHT22;67102;51.666;6.880;2023-03-01T10:35:17;9.50;45.40
13412;DHT22;67102;51.666;6.880;2023-03-01T10:37:59;9.40;45.20
13412;DHT22;67102;51.666;6.880;2023-03-01T10:40:28;9.40;45.60
13412;DHT22;67102;51.666;6.880;2023-03-01T10:42:57;9.30;45.80
13412;DHT22;67102;51.666;6.880;2023-03-01T10:45:31;9.30;45.90
13412;DHT22;67102;51.666;6.880;2023-03-01T10:48:10;9.40;46.50
13412;DHT22;67102;51.666;6.880;2023-03-01T10:50:38;9.50;46.60
13412;DHT22;67102;51.666;6.880;2023-03-01T10:53:23;9.60;46.00
13412;DHT22;67102;51.666;6.880;2023-03-01T10:55:58;9.70;45.70
13412;DHT22;67102;51.666;6.880;2023-03-01T10:58:26;9.70;45.40
13412;DHT22;67102;51.666;6.880;2023-03-01T11:00:54;9.80;44.30
13412;DHT22;67102;51.666;6.880;2023-03-01T11:03:23;9.80;44.50
13412;DHT22;67102;51.666;6.880;2023-03-01T11:05:56;9.70;44.40
13412;DHT22;67102;51.666;6.880;2023-03-01T11:08:33;9.70;44.90
13412;DHT22;67102;51.666;6.880;2023-03-01T11:11:18;9.70;45.00
13412;DHT22;67102;51.666;6.880;2023-03-01T11:13:52;9.60;44.70
13412;DHT22;67102;51.666;6.880;2023-03-01T11:16:34;9.60;44.80
13412;DHT22;67102;51.666;6.880;2023-03-01T11:19:14;9.60;44.80
13412;DHT22;67102;51.666;6.880;2023-03-01T11:21:46;9.60;44.80
13412;DHT22;67102;51.666;6.880;2023-03-01T11:24:18;9.60;43.80
13412;DHT22;67102;51.666;6.880;2023-03-01T11:26:49;9.60;44.00
13412;DHT22;67102;51.666;6.880;2023-03-01T11:29:26;9.50;44.60
13412;DHT22;67102;51.666;6.880;2023-03-01T11:31:59;9.50;44.50
13412;DHT22;67102;51.666;6.880;2023-03-01T11:34:38;9.40;44.10
13412;DHT22;67102;51.666;6.880;2023-03-01T11:37:15;9.40;44.80
13412;DHT22;67102;51.666;6.880;2023-03-01T11:39:54;9.30;44.80
13412;DHT22;67102;51.666;6.880;2023-03-01T11:42:31;9.30;44.70
13412;DHT22;67102;51.666;6.880;2023-03-01T11:45:10;9.20;45.10
13412;DHT22;67102;51.666;6.880;2023-03-01T11:47:58;9.20;45.70
13412;DHT22;67102;51.666;6.880;2023-03-01T11:50:34;9.30;45.00
13412;DHT22;67102;51.666;6.880;2023-03-01T11:53:16;9.30;45.00
13412;DHT22;67102;51.666;6.880;2023-03-01T11:56:00;9.20;45.50
13412;DHT22;67102;51.666;6.880;2023-03-01T12:01:32;9.20;44.70
13412;DHT22;67102;51.666;6.880;2023-03-01T12:04:20;9.10;45.40
13412;DHT22;67102;51.666;6.880;2023-03-01T12:07:13;10.30;46.10
13412;DHT22;67102;51.666;6.880;2023-03-01T12:09:53;9.10;45.60
13412;DHT22;67102;51.666;6.880;2023-03-01T12:12:53;9.20;46.20
13412;DHT22;67102;51.666;6.880;2023-03-01T12:15:49;9.20;44.70
13412;DHT22;67102;51.666;6.880;2023-03-01T12:18:41;9.20;45.00
13412;DHT22;67102;51.666;6.880;2023-03-01T12:21:28;9.10;45.30
13412;DHT22;67102;51.666;6.880;2023-03-01T12:24:21;9.10;45.60
13412;DHT22;67102;51.666;6.880;2023-03-01T12:27:23;9.10;45.90
13412;DHT22;67102;51.666;6.880;2023-03-01T12:30:03;9.10;45.90
13412;DHT22;67102;51.666;6.880;2023-03-01T12:32:49;9.10;46.40
13412;DHT22;67102;51.666;6.880;2023-03-01T12:35:31;9.20;46.00
13412;DHT22;67102;51.666;6.880;2023-03-01T12:38:13;9.20;46.00
13412;DHT22;67102;51.666;6.880;2023-03-01T12:44:11;9.30;46.60
13412;DHT22;67102;51.666;6.880;2023-03-01T12:47:12;9.40;45.00
13412;DHT22;67102;51.666;6.880;2023-03-01T12:49:49;9.30;45.00
13412;DHT22;67102;51.666;6.880;2023-03-01T12:52:22;9.30;45.80
13412;DHT22;67102;51.666;6.880;2023-03-01T12:54:51;9.30;45.50
13412;DHT22;67102;51.666;6.880;2023-03-01T12:57:25;9.30;45.10
13412;DHT22;67102;51.666;6.880;2023-03-01T13:00:05;9.30;45.40
13412;DHT22;67102;51.666;6.880;2023-03-01T13:02:48;9.40;45.80
13412;DHT22;67102;51.666;6.880;2023-03-01T13:05:26;9.50;45.10
13412;DHT22;67102;51.666;6.880;2023-03-01T13:08:03;9.40;45.00
13412;DHT22;67102;51.666;6.880;2023-03-01T13:10:35;9.40;45.60
13412;DHT22;67102;51.666;6.880;2023-03-01T13:13:18;9.40;45.10
13412;DHT22;67102;51.666;6.880;2023-03-01T13:15:45;9.50;45.80
13412;DHT22;67102;51.666;6.880;2023-03-01T13:18:31;9.50;45.00
13412;DHT22;67102;51.666;6.880;2023-03-01T13:20:59;9.60;44.90
13412;DHT22;67102;51.666;6.880;2023-03-01T13:23:29;9.60;44.90
13412;DHT22;67102;51.666;6.880;2023-03-01T13:26:03;9.60;45.00
13412;DHT22;67102;51.666;6.880;2023-03-01T13:28:47;9.60;45.10
13412;DHT22;67102;51.666;6.880;2023-03-01T13:34:45;11.10;44.70
13412;DHT22;67102;51.666;6.880;2023-03-01T13:37:20;9.70;44.60
13412;DHT22;67102;51.666;6.880;2023-03-01T13:39:47;9.70;44.10
13412;DHT22;67102;51.666;6.880;2023-03-01T13:45:18;9.80;44.30
13412;DHT22;67102;51.666;6.880;2023-03-01T13:47:49;9.80;44.20
13412;DHT22;67102;51.666;6.880;2023-03-01T13:50:22;9.70;43.60
13412;DHT22;67102;51.666;6.880;2023-03-01T13:52:53;9.70;44.00
13412;DHT22;67102;51.666;6.880;2023-03-01T13:55:23;9.70;44.50
13412;DHT22;67102;51.666;6.880;2023-03-01T13:57:55;9.70;44.10
13412;DHT22;67102;51.666;6.880;2023-03-01T14:00:31;9.70;44.00
13412;DHT22;67102;51.666;6.880;2023-03-01T14:03:01;9.70;44.20
13412;DHT22;67102;51.666;6.880;2023-03-01T14:05:29;9.80;43.70
13412;DHT22;67102;51.666;6.880;2023-03-01T14:07:55;9.80;43.50
13412;DHT22;67102;51.666;6.880;2023-03-01T14:10:21;9.90;43.50
13412;DHT22;67102;51.666;6.880;2023-03-01T14:12:53;9.90;44.10
13412;DHT22;67102;51.666;6.880;2023-03-01T14:15:29;9.80;43.40
13412;DHT22;67102;51.666;6.880;2023-03-01T14:18:04;9.90;42.90
13412;DHT22;67102;51.666;6.880;2023-03-01T14:20:42;9.80;42.70
13412;DHT22;67102;51.666;6.880;2023-03-01T14:23:11;9.80;42.50
13412;DHT22;67102;51.666;6.880;2023-03-01T14:25:46;9.80;43.10
13412;DHT22;67102;51.666;6.880;2023-03-01T14:28:16;9.90;42.20
13412;DHT22;67102;51.666;6.880;2023-03-01T14:30:45;9.90;43.00
13412;DHT22;67102;51.666;6.880;2023-03-01T14:33:21;10.00;42.90
13412;DHT22;67102;51.666;6.880;2023-03-01T14:35:56;10.00;43.10
13412;DHT22;67102;51.666;6.880;2023-03-01T14:38:30;10.00;42.90
13412;DHT22;67102;51.666;6.880;2023-03-01T14:40:59;10.00;42.40
13412;DHT22;67102;51.666;6.880;2023-03-01T14:43:27;10.00;42.90
13412;DHT22;67102;51.666;6.880;2023-03-01T14:45:55;10.00;42.70
13412;DHT22;67102;51.666;6.880;2023-03-01T14:48:21;9.90;42.70
13412;DHT22;67102;51.666;6.880;2023-03-01T14:50:48;9.90;42.00
13412;DHT22;67102;51.666;6.880;2023-03-01T14:53:19;9.90;41.30
13412;DHT22;67102;51.666;6.880;2023-03-01T14:55:48;9.80;41.90
13412;DHT22;67102;51.666;6.880;2023-03-01T14:58:20;9.80;42.20
13412;DHT22;67102;51.666;6.880;2023-03-01T15:00:52;9.80;42.70
13412;DHT22;67102;51.666;6.880;2023-03-01T15:03:24;9.80;42.30
13412;DHT22;67102;51.666;6.880;2023-03-01T15:05:52;9.80;42.40
13412;DHT22;67102;51.666;6.880;2023-03-01T15:08:22;9.70;42.80
13412;DHT22;67102;51.666;6.880;2023-03-01T15:10:57;9.70;43.00
13412;DHT22;67102;51.666;6.880;2023-03-01T15:13:28;9.70;43.40
13412;DHT22;67102;51.666;6.880;2023-03-01T15:16:05;9.70;43.60
13412;DHT22;67102;51.666;6.880;2023-03-01T15:18:32;9.70;43.40
13412;DHT22;67102;51.666;6.880;2023-03-01T15:21:07;9.80;43.90
13412;DHT22;67102;51.666;6.880;2023-03-01T15:23:37;9.70;44.00
13412;DHT22;67102;51.666;6.880;2023-03-01T15:26:04;9.70;43.80
13412;DHT22;67102;51.666;6.880;2023-03-01T15:28:31;9.70;43.70
13412;DHT22;67102;51.666;6.880;2023-03-01T15:31:01;9.70;43.60
13412;DHT22;67102;51.666;6.880;2023-03-01T15:33:32;9.80;43.80
13412;DHT22;67102;51.666;6.880;2023-03-01T15:36:00;9.90;43.20
13412;DHT22;67102;51.666;6.880;2023-03-01T15:38:31;9.80;42.90
13412;DHT22;67102;51.666;6.880;2023-03-01T15:41:01;9.80;42.50
13412;DHT22;67102;51.666;6.880;2023-03-01T15:43:43;9.80;42.70
13412;DHT22;67102;51.666;6.880;2023-03-01T15:46:22;9.80;43.00
13412;DHT22;67102;51.666;6.880;2023-03-01T15:48:52;9.80;43.10
13412;DHT22;67102;51.666;6.880;2023-03-01T15:51:22;9.80;43.60
13412;DHT22;67102;51.666;6.880;2023-03-01T15:53:53;9.80;42.50
13412;DHT22;67102;51.666;6.880;2023-03-01T15:56:21;9.80;42.80
13412;DHT22;67102;51.666;6.880;2023-03-01T15:58:47;9.80;42.30
13412;DHT22;67102;51.666;6.880;2023-03-01T16:01:13;9.80;42.20
13412;DHT22;67102;51.666;6.880;2023-03-01T16:03:40;9.80;42.60
13412;DHT22;67102;51.666;6.880;2023-03-01T16:06:08;9.80;42.40
13412;DHT22;67102;51.666;6.880;2023-03-01T16:08:35;9.90;42.40
13412;DHT22;67102;51.666;6.880;2023-03-01T16:11:00;9.80;41.40
13412;DHT22;67102;51.666;6.880;2023-03-01T16:13:28;9.80;41.60
13412;DHT22;67102;51.666;6.880;2023-03-01T16:15:54;9.70;41.90